Time;durP1;ratioP1;P1;durP2;ratioP2;P2;SDS_P1;SDS_P2;PMS_P1;PMS_P2;Temp;Humidity;BMP_temperature;BMP_pressure;BME280_temperature;BME280_humidity;BME280_pressure;Samples;Min_cycle;Max_cycle;Signal;HPM_P1;HPM_P2
2021/05/07 00:00:12;;;;;;;7.50;6.80;;;;;;;12.79;77.41;100635.82;1778726;80;20923;-76
2021/05/07 00:02:40;;;;;;;7.15;6.45;;;;;;;12.78;77.51;100642.05;1778752;80;20986;-76
2021/05/07 00:05:09;;;;;;;7.40;6.70;;;;;;;12.79;77.60;100640.25;1779258;79;21053;-75
2021/05/07 00:07:37;;;;;;;7.33;6.40;;;;;;;12.78;77.65;100635.92;1780840;80;21356;-75
2021/05/07 00:10:07;;;;;;;8.05;7.28;;;;;;;12.76;77.69;100641.76;1780663;80;20942;-76
2021/05/07 00:12:36;;;;;;;11.25;7.83;;;;;;;12.74;77.78;100640.57;1782165;80;20907;-76
2021/05/07 00:15:06;;;;;;;9.05;6.53;;;;;;;12.75;77.70;100650.13;1781628;80;20903;-75
2021/05/07 00:17:35;;;;;;;9.18;6.95;;;;;;;12.75;77.68;100657.19;1780111;79;20958;-75
2021/05/07 00:20:05;;;;;;;8.20;6.42;;;;;;;12.75;77.62;100665.09;1778752;80;21342;-75
2021/05/07 00:22:33;;;;;;;7.80;6.95;;;;;;;12.73;77.73;100661.23;1779144;79;20950;-76
2021/05/07 00:25:04;;;;;;;8.05;7.37;;;;;;;12.72;77.62;100663.99;1775578;80;20935;-77
2021/05/07 00:27:33;;;;;;;8.98;7.87;;;;;;;12.67;77.73;100663.44;1779205;79;21061;-76
2021/05/07 00:30:01;;;;;;;8.65;7.58;;;;;;;12.65;77.76;100663.09;1779034;80;21010;-74
2021/05/07 00:32:29;;;;;;;9.70;7.37;;;;;;;12.64;77.62;100656.12;1778579;80;21195;-75
2021/05/07 00:34:57;;;;;;;9.63;7.95;;;;;;;12.63;77.55;100663.66;1778582;80;21156;-76
2021/05/07 00:37:26;;;;;;;9.08;8.18;;;;;;;12.60;77.69;100668.28;1778618;80;20950;-76
2021/05/07 00:39:54;;;;;;;8.75;7.95;;;;;;;12.58;77.77;100679.38;1778593;80;20907;-75
2021/05/07 00:42:23;;;;;;;9.15;7.95;;;;;;;12.56;77.91;100680.81;1779399;79;21093;-76
2021/05/07 00:44:52;;;;;;;9.83;8.43;;;;;;;12.54;77.99;100676.12;1779357;80;21193;-75
2021/05/07 00:47:20;;;;;;;10.08;8.88;;;;;;;12.53;78.08;100674.91;1779385;80;21002;-76
2021/05/07 00:49:49;;;;;;;13.00;8.93;;;;;;;12.53;77.94;100680.17;1778706;80;21440;-75
2021/05/07 00:52:18;;;;;;;9.25;8.25;;;;;;;12.50;77.84;100682.53;1778768;80;21026;-76
2021/05/07 00:54:47;;;;;;;8.73;7.92;;;;;;;12.50;77.74;100677.75;1753010;80;20962;-76
2021/05/07 00:57:16;;;;;;;8.38;7.55;;;;;;;12.45;77.80;100676.75;1778673;79;21362;-76
2021/05/07 00:59:44;;;;;;;9.80;7.50;;;;;;;12.41;78.01;100685.30;1752657;80;20962;-76
2021/05/07 01:02:13;;;;;;;10.15;8.80;;;;;;;12.41;78.02;100687.94;1779898;80;20982;-75
2021/05/07 01:04:42;;;;;;;11.38;9.63;;;;;;;12.41;77.92;100689.25;1778763;80;20962;-76
2021/05/07 01:07:10;;;;;;;9.15;8.25;;;;;;;12.39;77.73;100685.05;1753201;80;21010;-75
2021/05/07 01:09:39;;;;;;;12.55;8.83;;;;;;;12.36;77.61;100686.55;1778701;79;21523;-75
2021/05/07 01:12:08;;;;;;;9.43;8.60;;;;;;;12.31;77.56;100683.39;1778544;80;20978;-76
2021/05/07 01:14:39;;;;;;;10.05;8.45;;;;;;;12.21;77.64;100687.11;1778522;80;20931;-76
2021/05/07 01:17:09;;;;;;;8.90;7.97;;;;;;;12.12;78.02;100685.92;1778358;79;21013;-75
2021/05/07 01:19:39;;;;;;;9.05;8.08;;;;;;;12.11;78.24;100692.10;1749228;80;21041;-73
2021/05/07 01:22:07;;;;;;;10.68;8.85;;;;;;;12.12;78.17;100698.23;1775510;80;21372;-76
2021/05/07 01:24:36;;;;;;;10.18;9.28;;;;;;;12.12;77.91;100697.75;1747695;80;20967;-76
2021/05/07 01:27:04;;;;;;;11.97;10.70;;;;;;;12.06;77.89;100699.45;1775546;80;20942;-76
2021/05/07 01:29:33;;;;;;;13.10;10.80;;;;;;;11.97;78.11;100707.94;1775468;80;20939;-75
2021/05/07 01:32:01;;;;;;;11.70;10.58;;;;;;;11.92;78.26;100708.72;1775476;80;20990;-76
2021/05/07 01:34:30;;;;;;;12.43;11.08;;;;;;;11.88;78.22;100706.75;1775525;80;21278;-76
2021/05/07 01:36:58;;;;;;;13.00;11.48;;;;;;;11.80;78.50;100709.84;1775535;79;20910;-74
2021/05/07 01:39:26;;;;;;;13.85;12.35;;;;;;;11.76;78.69;100714.05;1775472;80;20962;-75
2021/05/07 01:41:54;;;;;;;13.53;10.32;;;;;;;11.68;78.76;100713.71;1775519;79;21374;-75
2021/05/07 01:44:23;;;;;;;12.00;10.75;;;;;;;11.59;78.94;100708.09;1775521;80;21562;-76
2021/05/07 01:46:52;;;;;;;11.83;10.55;;;;;;;11.54;79.17;100710.17;1775494;80;22363;-76
2021/05/07 01:49:20;;;;;;;16.00;12.07;;;;;;;11.51;79.25;100716.07;1775489;80;20974;-76
2021/05/07 01:51:48;;;;;;;14.95;12.73;;;;;;;11.47;79.34;100720.69;1775659;80;21614;-77
2021/05/07 01:54:17;;;;;;;16.57;12.88;;;;;;;11.44;79.44;100723.97;1775513;80;20951;-75
2021/05/07 01:56:45;;;;;;;17.30;13.85;;;;;;;11.43;79.47;100727.51;1775597;79;21424;-75
2021/05/07 01:59:14;;;;;;;19.50;13.50;;;;;;;11.39;79.48;100725.56;1775671;80;21364;-76
2021/05/07 02:01:42;;;;;;;17.85;13.10;;;;;;;11.36;79.61;100727.05;1775431;79;21025;-77
2021/05/07 02:04:11;;;;;;;16.12;12.90;;;;;;;11.32;79.77;100729.03;1775495;80;21002;-75
2021/05/07 02:06:42;;;;;;;12.33;11.18;;;;;;;11.30;79.95;100736.63;1775423;79;21006;-76
2021/05/07 02:09:11;;;;;;;13.15;10.63;;;;;;;11.26;79.90;100737.75;1775539;80;21029;-76
2021/05/07 02:11:39;;;;;;;13.40;10.95;;;;;;;11.25;79.76;100739.55;1775440;80;21360;-75
2021/05/07 02:14:09;;;;;;;17.87;13.60;;;;;;;11.24;79.64;100747.02;1775418;79;21031;-75
2021/05/07 02:16:37;;;;;;;15.98;12.35;;;;;;;11.24;79.62;100750.96;1775517;80;20970;-75
2021/05/07 02:19:06;;;;;;;13.88;11.20;;;;;;;11.25;79.54;100751.80;1773614;79;20939;-75
2021/05/07 02:21:36;;;;;;;13.35;11.18;;;;;;;11.27;79.09;100758.67;1750659;81;21480;-77
2021/05/07 02:24:05;;;;;;;14.45;10.40;;;;;;;11.29;78.67;100760.70;1770018;81;21441;-77
2021/05/07 02:26:33;;;;;;;13.98;11.88;;;;;;;11.31;78.25;100760.14;1770035;81;20907;-79
2021/05/07 02:29:04;;;;;;;14.63;10.93;;;;;;;11.32;78.04;100769.73;1770111;81;20950;-78
2021/05/07 02:33:42;;;;;;;17.35;13.13;;;;;;;11.34;77.74;100767.02;1777072;79;22672;-76
2021/05/07 02:36:12;;;;;;;18.27;12.82;;;;;;;11.27;77.89;100776.18;1749840;82;20928;-75
2021/05/07 02:38:41;;;;;;;15.48;13.50;;;;;;;11.21;78.08;100774.78;1749693;81;21194;-75
2021/05/07 02:41:11;;;;;;;18.27;12.25;;;;;;;11.22;77.82;100779.56;1749663;82;20971;-75
2021/05/07 02:43:41;;;;;;;14.40;11.85;;;;;;;11.20;77.50;100788.83;1749811;82;21364;-76
2021/05/07 02:46:14;;;;;;;14.43;12.45;;;;;;;11.16;77.59;100789.94;1749778;82;21097;-76
2021/05/07 02:48:42;;;;;;;15.93;12.82;;;;;;;11.15;77.94;100798.30;1749913;82;21369;-75
2021/05/07 02:51:11;;;;;;;16.60;12.60;;;;;;;11.18;78.10;100801.20;1751128;82;21333;-73
2021/05/07 02:53:40;;;;;;;19.17;13.65;;;;;;;11.20;78.19;100806.77;1752560;82;20979;-75
2021/05/07 02:56:08;;;;;;;22.32;14.43;;;;;;;11.24;78.15;100801.31;1752217;80;20970;-75
2021/05/07 02:58:37;;;;;;;22.02;17.75;;;;;;;11.25;77.95;100805.17;1752432;80;20963;-76
2021/05/07 03:01:06;;;;;;;18.27;14.63;;;;;;;11.29;77.88;100810.59;1752828;82;20958;-77
2021/05/07 03:03:35;;;;;;;16.55;12.33;;;;;;;11.30;78.01;100812.30;1750865;80;21356;-75
2021/05/07 03:06:04;;;;;;;23.30;17.07;;;;;;;11.30;77.80;100811.45;1752415;80;21034;-75
2021/05/07 03:08:33;;;;;;;25.45;17.77;;;;;;;11.29;78.05;100809.27;1751713;82;20939;-78
2021/05/07 03:11:02;;;;;;;29.45;19.52;;;;;;;11.32;78.39;100811.73;1750339;82;20956;-74
2021/05/07 03:13:30;;;;;;;36.13;19.05;;;;;;;11.38;78.59;100818.38;1750060;82;20955;-74
2021/05/07 03:15:59;;;;;;;36.35;17.90;;;;;;;11.45;78.64;100828.05;1750094;81;21364;-75
2021/05/07 03:18:30;;;;;;;30.88;17.70;;;;;;;11.53;78.68;100837.63;1749724;81;20915;-76
2021/05/07 03:20:59;;;;;;;24.70;17.52;;;;;;;11.58;78.68;100827.23;1749767;80;20943;-75
2021/05/07 03:23:27;;;;;;;21.30;17.52;;;;;;;11.63;78.69;100837.46;1749644;80;20970;-75
2021/05/07 03:25:56;;;;;;;40.05;17.62;;;;;;;11.69;78.62;100844.11;1749640;82;20994;-76
2021/05/07 03:28:24;;;;;;;38.02;18.25;;;;;;;11.72;78.55;100846.56;1749651;81;21192;-74
2021/05/07 03:30:53;;;;;;;32.23;18.60;;;;;;;11.76;78.51;100844.10;1749666;81;21511;-75
2021/05/07 03:33:22;;;;;;;26.07;16.32;;;;;;;11.80;78.40;100847.79;1739817;81;20912;-77
2021/05/07 03:35:52;;;;;;;21.57;15.80;;;;;;;11.88;78.08;100844.70;1736420;81;20935;-74
2021/05/07 03:38:20;;;;;;;19.07;16.10;;;;;;;11.87;78.00;100841.66;1736522;82;20944;-73
2021/05/07 03:40:48;;;;;;;17.62;15.35;;;;;;;11.83;78.02;100834.45;1736519;81;22313;-76
2021/05/07 03:43:17;;;;;;;19.57;15.98;;;;;;;11.84;78.23;100841.86;1736331;82;21003;-78
2021/05/07 03:45:49;;;;;;;19.62;15.08;;;;;;;11.85;78.45;100838.30;1736199;82;21464;-76
2021/05/07 03:48:22;;;;;;;19.75;16.17;;;;;;;11.91;78.64;100843.19;1736153;82;21587;-75
2021/05/07 03:50:51;;;;;;;18.80;15.15;;;;;;;12.00;78.40;100839.98;1735910;81;20995;-74
2021/05/07 03:53:20;;;;;;;21.20;17.15;;;;;;;12.11;78.11;100849.00;1736015;81;22104;-73
2021/05/07 03:55:50;;;;;;;18.62;16.62;;;;;;;12.26;77.87;100853.29;1735866;82;20971;-75
2021/05/07 03:58:19;;;;;;;20.23;15.63;;;;;;;12.42;77.62;100851.84;1735962;82;20940;-74
2021/05/07 04:00:48;;;;;;;19.45;15.93;;;;;;;12.56;77.20;100853.13;1735804;82;21007;-74
2021/05/07 04:03:16;;;;;;;25.20;18.45;;;;;;;12.69;76.76;100849.69;1735883;82;21536;-75
2021/05/07 04:05:48;;;;;;;23.47;20.37;;;;;;;12.86;76.49;100846.80;1735914;82;22192;-75
2021/05/07 04:08:21;;;;;;;29.50;19.23;;;;;;;13.14;76.37;100844.95;1735805;81;20959;-76
2021/05/07 04:11:05;;;;;;;22.70;17.87;;;;;;;13.55;75.55;100847.45;1735818;82;20948;-75
2021/05/07 04:13:37;;;;;;;26.95;17.07;;;;;;;14.05;74.21;100839.57;1734909;82;21003;-76
2021/05/07 04:16:02;;;;;;;20.90;17.07;;;;;;;14.63;72.71;100845.97;1735496;82;20940;-77
2021/05/07 04:18:30;;;;;;;21.80;16.50;;;;;;;15.24;70.67;100842.34;1735937;81;21192;-77
2021/05/07 04:21:04;;;;;;;21.52;17.35;;;;;;;15.78;68.38;100842.19;1735800;82;20916;-78
2021/05/07 04:23:55;;;;;;;;;;;;;;;;;;;;;
2021/05/07 04:27:00;;;;;;;19.95;15.78;;;;;;;16.90;64.08;100849.08;1835690;77;26871;-77
2021/05/07 04:29:30;;;;;;;18.37;13.58;;;;;;;17.18;62.39;100855.05;1798427;78;21573;-79
2021/05/07 04:32:03;;;;;;;16.73;13.93;;;;;;;17.40;61.24;100855.89;1799208;78;21422;-79
2021/05/07 04:34:31;;;;;;;17.48;14.60;;;;;;;17.66;61.01;100863.45;1753460;81;21002;-75
2021/05/07 04:37:06;;;;;;;16.87;14.43;;;;;;;17.90;60.66;100860.03;1743007;81;21421;-78
2021/05/07 04:39:37;;;;;;;19.55;14.83;;;;;;;18.10;60.17;100869.39;1745439;81;21072;-77
2021/05/07 04:42:06;;;;;;;21.02;14.63;;;;;;;18.28;59.50;100866.43;1733635;81;21114;-76
2021/05/07 04:44:34;;;;;;;16.23;13.18;;;;;;;18.51;58.42;100871.50;1732179;81;21211;-76
2021/05/07 04:47:03;;;;;;;13.03;10.93;;;;;;;18.84;58.00;100869.81;1750564;80;20973;-76
2021/05/07 04:49:33;;;;;;;14.83;9.90;;;;;;;19.21;56.69;100870.93;1757371;80;20942;-77
2021/05/07 04:52:01;;;;;;;15.40;11.00;;;;;;;19.63;55.83;100862.55;1732585;81;21364;-77
2021/05/07 04:54:32;;;;;;;10.75;9.63;;;;;;;20.02;54.65;100863.77;1748785;81;21103;-76
2021/05/07 04:56:59;;;;;;;9.40;8.48;;;;;;;20.33;53.21;100866.14;1731177;81;21372;-75
2021/05/07 04:59:27;;;;;;;14.03;9.33;;;;;;;20.57;52.07;100861.59;1754169;81;21038;-76
2021/05/07 05:01:57;;;;;;;12.68;11.20;;;;;;;20.84;51.31;100872.67;1742019;81;20967;-75
2021/05/07 05:04:25;;;;;;;10.23;8.55;;;;;;;21.11;50.40;100877.07;1736712;81;20954;-74
2021/05/07 05:06:56;;;;;;;9.35;8.43;;;;;;;21.41;49.62;100875.84;1737738;81;21190;-74
2021/05/07 05:09:24;;;;;;;11.95;9.03;;;;;;;21.70;48.63;100879.52;1731081;81;21156;-76
2021/05/07 05:11:52;;;;;;;9.65;7.62;;;;;;;21.94;47.83;100876.61;1734930;81;21025;-73
2021/05/07 05:14:21;;;;;;;11.53;9.43;;;;;;;22.24;47.14;100881.95;1723923;81;21129;-81
2021/05/07 05:16:50;;;;;;;8.33;7.45;;;;;;;22.58;46.79;100880.20;1734113;81;21083;-78
2021/05/07 05:19:18;;;;;;;9.38;7.50;;;;;;;22.89;46.04;100882.58;1750889;80;20945;-77
2021/05/07 05:21:49;;;;;;;10.40;6.67;;;;;;;23.16;44.94;100885.45;1724632;81;21166;-78
2021/05/07 05:24:16;;;;;;;8.33;6.08;;;;;;;23.36;44.27;100881.92;1757664;80;21971;-76
2021/05/07 05:26:45;;;;;;;6.90;5.95;;;;;;;23.52;42.94;100889.59;1732510;81;21129;-77
2021/05/07 05:29:14;;;;;;;9.98;6.37;;;;;;;23.70;43.04;100883.55;1730394;80;21068;-76
2021/05/07 05:31:43;;;;;;;5.42;4.83;;;;;;;23.90;42.47;100888.04;1745225;81;21003;-76
2021/05/07 05:34:14;;;;;;;5.03;3.33;;;;;;;24.12;41.17;100885.59;1737950;81;21196;-77
2021/05/07 05:36:46;;;;;;;3.35;2.67;;;;;;;24.37;39.78;100885.81;1737494;81;20915;-76
2021/05/07 05:39:15;;;;;;;3.25;2.77;;;;;;;24.69;38.04;100883.14;1734634;81;21050;-75
2021/05/07 05:41:43;;;;;;;2.83;2.10;;;;;;;24.90;37.04;100885.16;1739408;81;21070;-74
2021/05/07 05:44:11;;;;;;;2.67;2.08;;;;;;;25.15;34.81;100887.98;1753388;81;21551;-75
2021/05/07 05:46:41;;;;;;;2.87;1.98;;;;;;;25.45;34.29;100892.09;1730615;81;21287;-73
2021/05/07 05:49:12;;;;;;;3.22;2.33;;;;;;;25.67;34.78;100886.84;1747080;81;21554;-75
2021/05/07 05:51:40;;;;;;;3.52;2.37;;;;;;;25.84;34.29;100887.81;1746538;81;21011;-73
2021/05/07 05:54:08;;;;;;;3.30;2.72;;;;;;;26.01;33.86;100899.73;1734644;81;21065;-74
2021/05/07 05:56:37;;;;;;;5.80;2.47;;;;;;;26.10;33.69;100897.29;1726830;81;21038;-75
2021/05/07 05:59:05;;;;;;;10.38;2.85;;;;;;;26.19;33.38;100898.84;1743657;81;21152;-75
2021/05/07 06:01:33;;;;;;;7.97;3.33;;;;;;;26.36;31.23;100894.59;1724499;82;20953;-75
2021/05/07 06:04:02;;;;;;;4.70;4.20;;;;;;;26.51;30.47;100890.52;1743787;81;20950;-74
2021/05/07 06:06:30;;;;;;;5.70;4.05;;;;;;;26.72;30.63;100882.48;1750667;80;21446;-74
2021/05/07 06:08:58;;;;;;;4.00;3.45;;;;;;;26.88;30.37;100885.45;1757977;81;20948;-73
2021/05/07 06:11:27;;;;;;;4.28;3.87;;;;;;;26.94;28.64;100883.83;1753816;81;21199;-74
2021/05/07 06:13:55;;;;;;;5.10;3.92;;;;;;;26.94;28.54;100884.66;1744143;81;21065;-75
2021/05/07 06:16:24;;;;;;;5.30;4.40;;;;;;;26.99;29.37;100886.77;1741989;81;21077;-75
2021/05/07 06:18:55;;;;;;;5.53;3.75;;;;;;;27.15;30.04;100886.52;1725840;81;20935;-74
2021/05/07 06:21:24;;;;;;;10.28;5.15;;;;;;;27.38;30.15;100883.59;1732983;81;20942;-75
2021/05/07 06:23:54;;;;;;;14.15;6.00;;;;;;;27.56;29.12;100880.41;1754242;80;22133;-74
2021/05/07 06:26:22;;;;;;;9.43;5.40;;;;;;;27.71;28.79;100889.73;1736973;81;21117;-74
2021/05/07 06:28:51;;;;;;;8.70;6.08;;;;;;;27.98;28.03;100885.86;1752945;81;21551;-75
2021/05/07 06:31:19;;;;;;;10.18;6.05;;;;;;;28.16;26.98;100883.96;1742042;81;21037;-74
2021/05/07 06:33:48;;;;;;;6.30;5.22;;;;;;;28.27;27.41;100891.47;1733153;81;21033;-73
2021/05/07 06:36:18;;;;;;;8.75;5.72;;;;;;;28.39;27.70;100890.36;1738194;81;22277;-73
2021/05/07 06:38:47;;;;;;;7.65;5.97;;;;;;;28.39;27.55;100895.27;1748767;81;21050;-73
2021/05/07 06:41:17;;;;;;;9.90;5.97;;;;;;;28.43;26.87;100895.14;1753505;81;21014;-75
2021/05/07 06:43:45;;;;;;;12.60;7.30;;;;;;;28.59;26.37;100901.23;1738944;81;21163;-72
2021/05/07 06:46:14;;;;;;;10.93;7.20;;;;;;;28.70;26.18;100898.80;1729896;81;21026;-74
2021/05/07 06:48:42;;;;;;;10.10;6.00;;;;;;;28.83;26.54;100892.56;1727734;81;21475;-76
2021/05/07 06:51:12;;;;;;;5.80;4.90;;;;;;;28.87;26.62;100892.99;1752683;81;20927;-73
2021/05/07 06:53:42;;;;;;;8.80;5.30;;;;;;;28.99;26.05;100887.27;1745687;81;20971;-73
2021/05/07 06:56:10;;;;;;;8.70;5.15;;;;;;;29.16;26.17;100885.56;1752855;81;21138;-74
2021/05/07 06:58:40;;;;;;;9.03;4.55;;;;;;;29.38;25.41;100874.02;1730123;81;21049;-75
2021/05/07 07:01:09;;;;;;;7.95;4.35;;;;;;;29.55;24.96;100883.34;1740063;81;21800;-74
2021/05/07 07:03:37;;;;;;;9.55;4.90;;;;;;;29.75;24.59;100880.09;1736958;81;20986;-75
2021/05/07 07:06:05;;;;;;;6.78;4.97;;;;;;;29.90;23.65;100868.17;1745291;81;20967;-73
2021/05/07 07:08:36;;;;;;;10.43;4.87;;;;;;;29.85;22.32;100871.52;1731779;81;21593;-70
2021/05/07 07:11:07;;;;;;;7.25;4.55;;;;;;;29.67;22.55;100874.05;1747116;81;21130;-76
2021/05/07 07:13:38;;;;;;;7.28;4.75;;;;;;;29.64;23.12;100876.66;1740386;81;21057;-78
2021/05/07 07:16:06;;;;;;;5.37;4.10;;;;;;;29.64;23.13;100883.95;1760267;81;21547;-78
2021/05/07 07:18:37;;;;;;;4.72;4.00;;;;;;;29.58;23.29;100883.44;1751337;80;20926;-76
2021/05/07 07:21:06;;;;;;;10.78;4.92;;;;;;;29.12;22.64;100886.48;1758108;80;21049;-77
2021/05/07 07:23:38;;;;;;;9.88;5.17;;;;;;;28.46;22.73;100892.06;1757828;80;21012;-77
2021/05/07 07:29:53;;;;;;;8.95;5.70;;;;;;;27.52;24.04;100900.68;1663494;84;21107;-76
2021/05/07 07:32:22;;;;;;;9.63;4.97;;;;;;;27.12;23.94;100893.61;1684717;85;20948;-75
2021/05/07 07:34:54;;;;;;;11.12;5.55;;;;;;;27.18;24.75;100894.19;1684714;85;20949;-75
2021/05/07 07:37:21;;;;;;;7.05;4.95;;;;;;;27.27;24.04;100894.91;1709976;83;20943;-75
2021/05/07 07:39:50;;;;;;;8.68;5.40;;;;;;;27.60;24.95;100891.63;1709967;84;21266;-75
2021/05/07 07:42:19;;;;;;;7.37;5.20;;;;;;;28.00;23.71;100888.66;1709894;82;20978;-76
2021/05/07 07:44:48;;;;;;;10.10;6.65;;;;;;;28.35;23.44;100887.75;1709961;84;20923;-74
2021/05/07 07:47:17;;;;;;;7.20;5.87;;;;;;;28.65;23.03;100890.98;1710087;84;21424;-77
2021/05/07 07:49:47;;;;;;;11.12;7.28;;;;;;;28.91;23.00;100889.67;1710078;82;20998;-76
2021/05/07 07:52:16;;;;;;;9.63;6.58;;;;;;;29.19;22.61;100884.60;1710071;84;21267;-76
2021/05/07 07:54:44;;;;;;;8.05;7.25;;;;;;;29.45;22.31;100881.05;1709895;82;20998;-76
2021/05/07 07:57:12;;;;;;;8.25;6.53;;;;;;;29.65;22.11;100880.19;1709940;84;21057;-78
2021/05/07 07:59:41;;;;;;;5.83;5.33;;;;;;;29.81;22.42;100877.58;1709899;82;21396;-75
2021/05/07 08:02:09;;;;;;;6.03;5.53;;;;;;;29.96;20.98;100880.85;1710116;82;20931;-75
2021/05/07 08:04:38;;;;;;;6.40;5.80;;;;;;;29.80;21.19;100875.92;1710010;84;21430;-77
2021/05/07 08:07:07;;;;;;;11.88;6.37;;;;;;;29.82;21.50;100883.30;1710040;84;21492;-78
2021/05/07 08:09:36;;;;;;;8.93;4.58;;;;;;;29.90;21.04;100878.50;1709969;84;21026;-75
2021/05/07 08:12:05;;;;;;;5.65;4.50;;;;;;;29.81;20.18;100874.87;1709975;82;21181;-76
2021/05/07 08:14:35;;;;;;;7.25;4.92;;;;;;;29.69;21.40;100877.41;1709974;84;21015;-76
2021/05/07 08:17:03;;;;;;;5.78;4.60;;;;;;;29.72;21.14;100885.91;1709977;83;21346;-76
2021/05/07 08:19:32;;;;;;;4.67;3.80;;;;;;;29.79;21.76;100879.66;1709983;82;21392;-72
2021/05/07 08:22:02;;;;;;;6.10;3.55;;;;;;;29.93;21.26;100879.41;1711728;84;21369;-76
2021/05/07 08:24:31;;;;;;;5.62;4.20;;;;;;;30.01;20.78;100873.45;1711425;82;20935;-76
2021/05/07 08:26:59;;;;;;;6.00;4.58;;;;;;;30.06;20.51;100874.48;1710005;82;21022;-76
2021/05/07 08:29:27;;;;;;;7.62;3.22;;;;;;;30.10;21.03;100879.77;1710226;82;22254;-75
2021/05/07 08:31:56;;;;;;;5.35;3.62;;;;;;;30.04;19.85;100890.09;1710062;82;21420;-76
2021/05/07 08:34:24;;;;;;;4.20;3.50;;;;;;;29.86;19.98;100892.13;1710006;83;21038;-75
2021/05/07 08:36:52;;;;;;;6.17;3.70;;;;;;;29.71;20.26;100891.55;1710023;84;21472;-76
2021/05/07 08:39:20;;;;;;;11.20;3.87;;;;;;;29.73;20.20;100888.94;1710061;84;20951;-76
2021/05/07 08:41:49;;;;;;;7.05;3.65;;;;;;;29.45;19.71;100887.81;1710103;82;21388;-75
2021/05/07 08:44:20;;;;;;;7.67;4.10;;;;;;;28.90;20.15;100890.72;1709929;82;20978;-74
2021/05/07 08:46:49;;;;;;;5.97;3.50;;;;;;;28.49;20.42;100886.80;1709916;82;20967;-73
2021/05/07 08:49:18;;;;;;;5.28;3.58;;;;;;;28.02;21.88;100896.56;1710007;84;21050;-75
2021/05/07 08:51:46;;;;;;;5.30;2.62;;;;;;;27.57;21.12;100906.83;1710182;84;21014;-76
2021/05/07 08:54:15;;;;;;;6.15;3.22;;;;;;;27.11;21.56;100903.25;1710310;84;21455;-78
2021/05/07 08:56:44;;;;;;;5.72;2.70;;;;;;;26.70;21.84;100902.53;1711044;82;21030;-78
2021/05/07 08:59:13;;;;;;;4.53;2.67;;;;;;;26.39;22.41;100899.58;1711308;84;21038;-78
2021/05/07 09:01:47;;;;;;;5.20;2.95;;;;;;;26.20;23.50;100896.98;1711723;83;21194;-78
2021/05/07 09:04:22;;;;;;;3.08;2.70;;;;;;;26.12;24.03;100897.91;1712051;84;20959;-76
2021/05/07 09:06:52;;;;;;;8.93;2.60;;;;;;;26.09;23.66;100892.09;1712901;82;21210;-75
2021/05/07 09:09:30;;;;;;;4.67;3.55;;;;;;;26.16;23.75;100890.31;1713050;84;20939;-78
2021/05/07 09:12:02;;;;;;;7.53;3.22;;;;;;;26.05;23.54;100885.73;1713447;82;20951;-77
2021/05/07 09:14:31;;;;;;;5.28;2.70;;;;;;;25.87;23.38;100878.54;1713179;83;20943;-74
2021/05/07 09:17:02;;;;;;;3.15;1.82;;;;;;;25.83;23.93;100879.92;1709626;82;20911;-74
2021/05/07 09:19:34;;;;;;;3.65;1.40;;;;;;;25.87;23.64;100873.16;1712436;84;21353;-71
2021/05/07 09:22:03;;;;;;;7.90;2.22;;;;;;;26.11;23.52;100885.50;1711426;84;21065;-74
2021/05/07 09:24:33;;;;;;;1.10;1.00;;;;;;;26.39;23.25;100893.71;1711021;83;21366;-72
2021/05/07 09:27:04;;;;;;;1.42;0.60;;;;;;;26.82;22.35;100888.91;1710443;84;21073;-73
2021/05/07 09:29:35;;;;;;;2.08;0.82;;;;;;;27.37;20.50;100890.52;1710667;84;21087;-74
2021/05/07 09:32:04;;;;;;;3.02;0.50;;;;;;;27.57;19.93;100882.58;1710620;84;21378;-76
2021/05/07 09:34:37;;;;;;;1.35;0.57;;;;;;;27.53;19.77;100879.98;1710284;82;21709;-73
2021/05/07 09:37:17;;;;;;;2.10;0.60;;;;;;;27.63;20.17;100889.88;1710464;84;21034;-74
2021/05/07 09:39:47;;;;;;;2.42;1.02;;;;;;;27.80;20.54;100894.45;1710250;84;20967;-76
2021/05/07 09:42:24;;;;;;;2.33;0.50;;;;;;;27.83;20.33;100879.21;1710444;84;21046;-76
2021/05/07 09:44:52;;;;;;;2.05;0.75;;;;;;;27.86;20.62;100876.99;1710494;83;21371;-75
2021/05/07 09:47:21;;;;;;;3.72;1.65;;;;;;;27.97;20.64;100897.66;1711158;83;20951;-75
2021/05/07 09:49:51;;;;;;;1.82;0.88;;;;;;;28.14;20.59;100898.16;1712379;82;20979;-75
2021/05/07 09:52:28;;;;;;;0.93;0.70;;;;;;;28.27;20.43;100899.56;1717550;82;21385;-76
2021/05/07 09:54:56;;;;;;;1.62;0.60;;;;;;;28.29;20.11;100905.59;1712041;82;21026;-74
2021/05/07 09:57:24;;;;;;;2.92;0.65;;;;;;;28.20;19.29;100896.84;1711951;84;21397;-77
2021/05/07 09:59:54;;;;;;;3.08;0.90;;;;;;;28.03;19.49;100900.39;1711610;84;21141;-77
2021/05/07 10:02:22;;;;;;;1.15;0.55;;;;;;;27.86;19.01;100909.34;1688665;84;20977;-79
2021/05/07 10:04:54;;;;;;;1.42;0.57;;;;;;;27.80;19.45;100914.66;1712968;83;20959;-78
2021/05/07 10:07:23;;;;;;;1.10;0.40;;;;;;;27.88;20.10;100907.77;1711912;84;20928;-79
2021/05/07 10:09:52;;;;;;;2.05;0.68;;;;;;;28.06;19.23;100908.09;1710697;82;21389;-78
2021/05/07 10:12:21;;;;;;;0.78;0.45;;;;;;;28.25;19.41;100908.37;1710208;82;20983;-77
2021/05/07 10:14:50;;;;;;;0.78;0.45;;;;;;;28.37;21.00;100898.67;1710225;84;20970;-78
2021/05/07 10:17:19;;;;;;;0.98;0.40;;;;;;;28.56;19.99;100902.48;1710061;84;20959;-73
2021/05/07 10:19:48;;;;;;;3.80;0.72;;;;;;;28.69;19.43;100907.09;1710017;84;20951;-74
2021/05/07 10:22:25;;;;;;;0.45;0.35;;;;;;;28.78;18.19;100898.28;1709226;83;21216;-76
2021/05/07 10:24:49;;;;;;;0.78;0.40;;;;;;;28.79;18.71;100900.78;1709589;83;20971;-75
2021/05/07 10:27:21;;;;;;;2.45;0.50;;;;;;;28.77;18.59;100903.34;1710087;82;21035;-74
2021/05/07 10:29:56;;;;;;;0.30;0.30;;;;;;;28.78;18.49;100890.18;1710094;82;20907;-76
2021/05/07 10:32:36;;;;;;;2.33;0.77;;;;;;;28.76;18.89;100886.33;1710318;84;21018;-74
2021/05/07 10:35:06;;;;;;;4.60;0.70;;;;;;;28.59;18.11;100884.55;1629671;86;21394;-76
2021/05/07 10:37:42;;;;;;;1.15;0.35;;;;;;;28.37;19.10;100889.23;1629797;86;21613;-74
2021/05/07 10:40:15;;;;;;;2.35;0.30;;;;;;;28.24;18.83;100884.63;1629805;86;21014;-75
2021/05/07 10:42:44;;;;;;;1.55;0.30;;;;;;;28.12;18.59;100875.44;1607490;88;21090;-74
2021/05/07 10:45:12;;;;;;;2.33;0.62;;;;;;;28.04;18.83;100876.45;1608410;86;21019;-75
2021/05/07 10:47:41;;;;;;;1.65;0.70;;;;;;;27.99;19.25;100868.63;1629905;88;22281;-73
2021/05/07 10:50:19;;;;;;;1.77;0.50;;;;;;;27.96;19.22;100864.48;1629856;86;21575;-73
2021/05/07 10:52:48;;;;;;;1.92;0.57;;;;;;;27.91;19.01;100860.22;1629731;86;21151;-74
2021/05/07 10:55:18;;;;;;;2.15;0.30;;;;;;;28.02;19.35;100863.69;1629708;86;20990;-74
2021/05/07 10:57:54;;;;;;;3.00;0.40;;;;;;;28.21;19.22;100869.34;1629837;86;21002;-73
2021/05/07 11:00:33;;;;;;;2.12;0.40;;;;;;;28.40;18.65;100868.58;1629665;86;21219;-74
2021/05/07 11:03:03;;;;;;;4.30;0.70;;;;;;;28.55;19.02;100867.59;1609200;86;21073;-73
2021/05/07 11:05:39;;;;;;;3.75;0.85;;;;;;;28.72;19.37;100868.38;1629688;86;20963;-76
2021/05/07 11:08:30;;;;;;;1.95;1.00;;;;;;;28.88;17.66;100867.15;1775231;79;22837;-74
2021/05/07 11:11:00;;;;;;;2.08;0.55;;;;;;;28.92;16.87;100868.89;1749723;80;21011;-75
2021/05/07 11:13:30;;;;;;;0.72;0.70;;;;;;;28.96;17.51;100858.00;1749848;82;21193;-75
2021/05/07 11:16:00;;;;;;;2.77;0.37;;;;;;;28.99;17.33;100854.87;1749615;82;21074;-75
2021/05/07 11:18:31;;;;;;;0.90;0.47;;;;;;;28.91;17.94;100847.82;1749822;80;20998;-74
2021/05/07 11:21:15;;;;;;;11.08;1.27;;;;;;;28.83;17.71;100851.24;1749752;80;21003;-74
2021/05/07 11:23:45;;;;;;;0.65;0.30;;;;;;;28.82;17.66;100845.02;1746726;82;20920;-76
2021/05/07 11:26:15;;;;;;;1.25;0.35;;;;;;;28.86;18.40;100850.84;1749645;82;21254;-74
2021/05/07 11:28:45;;;;;;;0.78;0.30;;;;;;;28.78;18.34;100844.30;1749758;80;20943;-76
2021/05/07 11:31:15;;;;;;;3.42;0.45;;;;;;;28.71;18.48;100851.86;1749846;80;20924;-77
2021/05/07 11:33:43;;;;;;;2.20;0.53;;;;;;;28.68;18.29;100847.37;1749717;82;21511;-76
2021/05/07 11:36:14;;;;;;;3.98;0.72;;;;;;;28.54;18.21;100838.96;1658007;85;21013;-78
2021/05/07 11:38:43;;;;;;;2.37;0.65;;;;;;;28.40;18.87;100829.98;1657720;86;21547;-79